createdAt,value
2023-03-29T00:02:33.488Z,100.00
2023-03-29T00:05:02.089Z,100.00
2023-03-29T00:07:30.088Z,100.00
2023-03-29T00:09:56.705Z,100.00
2023-03-29T00:12:23.130Z,100.00
2023-03-29T00:14:49.560Z,100.00
2023-03-29T00:17:16.404Z,100.00
2023-03-29T00:19:44.524Z,100.00
2023-03-29T00:22:11.492Z,100.00
2023-03-29T00:24:37.976Z,100.00
2023-03-29T00:27:04.789Z,100.00
2023-03-29T00:29:31.346Z,100.00
2023-03-29T00:31:58.117Z,100.00
2023-03-29T00:34:26.490Z,100.00
2023-03-29T00:36:53.137Z,100.00
2023-03-29T00:39:20.536Z,100.00
2023-03-29T00:41:48.705Z,100.00
2023-03-29T00:44:52.714Z,100.00
2023-03-29T00:47:26.475Z,100.00
2023-03-29T00:49:53.916Z,100.00
2023-03-29T00:52:21.772Z,100.00
2023-03-29T00:54:52.981Z,100.00
2023-03-29T00:57:20.897Z,100.00
2023-03-29T00:59:49.627Z,100.00
2023-03-29T01:02:22.088Z,100.00
2023-03-29T01:04:57.878Z,100.00
2023-03-29T01:07:30.739Z,100.00
2023-03-29T01:10:29.474Z,100.00
2023-03-29T01:13:06.367Z,100.00
2023-03-29T01:15:33.408Z,100.00
2023-03-29T01:18:01.828Z,100.00
2023-03-29T01:20:46.032Z,100.00
2023-03-29T01:23:22.256Z,100.00
2023-03-29T01:26:10.024Z,100.00
2023-03-29T01:28:45.505Z,100.00
2023-03-29T01:31:19.684Z,100.00
2023-03-29T01:34:00.975Z,100.00
2023-03-29T01:36:35.004Z,100.00
2023-03-29T01:39:06.950Z,100.00
2023-03-29T01:41:52.243Z,100.00
2023-03-29T01:44:23.970Z,100.00
2023-03-29T01:46:53.212Z,100.00
2023-03-29T01:49:32.315Z,100.00
2023-03-29T01:52:05.363Z,100.00
2023-03-29T01:54:38.133Z,100.00
2023-03-29T01:57:06.887Z,100.00
2023-03-29T01:59:36.299Z,100.00
2023-03-29T02:02:08.128Z,100.00
2023-03-29T02:04:40.364Z,100.00
2023-03-29T02:07:09.012Z,100.00
2023-03-29T02:09:37.782Z,100.00
2023-03-29T02:12:07.081Z,100.00
2023-03-29T02:14:33.586Z,100.00
2023-03-29T02:17:18.213Z,100.00
2023-03-29T02:19:51.550Z,100.00
2023-03-29T02:22:24.326Z,100.00
2023-03-29T02:24:54.799Z,100.00
2023-03-29T02:27:21.766Z,100.00
2023-03-29T02:29:48.325Z,100.00
2023-03-29T02:32:42.260Z,100.00
2023-03-29T02:35:14.506Z,100.00
2023-03-29T02:37:44.442Z,100.00
2023-03-29T02:40:13.089Z,100.00
2023-03-29T02:42:42.488Z,99.30
2023-03-29T02:45:12.761Z,98.96
2023-03-29T02:47:44.336Z,99.97
2023-03-29T02:50:11.943Z,99.95
2023-03-29T02:52:43.008Z,100.00
2023-03-29T02:55:15.770Z,100.00
2023-03-29T02:57:43.812Z,100.00
2023-03-29T03:00:11.803Z,100.00
2023-03-29T03:02:38.324Z,100.00
2023-03-29T03:05:06.656Z,100.00
2023-03-29T03:07:33.752Z,100.00
2023-03-29T03:10:00.365Z,100.00
2023-03-29T03:12:27.098Z,100.00
2023-03-29T03:14:53.594Z,100.00
2023-03-29T03:17:20.186Z,100.00
2023-03-29T03:19:47.454Z,100.00
2023-03-29T03:22:14.848Z,100.00
2023-03-29T03:24:42.652Z,99.62
2023-03-29T03:27:10.790Z,98.97
2023-03-29T03:29:38.553Z,98.65
2023-03-29T03:32:43.579Z,97.87
2023-03-29T03:35:49.213Z,97.10
2023-03-29T03:38:17.018Z,96.96
2023-03-29T03:40:53.656Z,96.43
2023-03-29T03:43:20.110Z,95.27
2023-03-29T03:45:47.958Z,93.88
2023-03-29T03:48:17.512Z,92.24
2023-03-29T03:50:55.215Z,93.22
2023-03-29T03:53:23.522Z,93.80
2023-03-29T03:56:20.451Z,94.34
2023-03-29T03:59:07.155Z,94.47
2023-03-29T04:01:50.641Z,94.23
2023-03-29T04:04:20.594Z,92.69
2023-03-29T04:07:02.652Z,92.97
2023-03-29T04:09:48.811Z,93.29
2023-03-29T04:12:33.899Z,93.70
2023-03-29T04:15:01.198Z,93.17
2023-03-29T04:17:28.978Z,92.34
2023-03-29T04:19:58.259Z,92.71
2023-03-29T04:22:27.220Z,93.18
2023-03-29T04:24:53.873Z,93.03
2023-03-29T04:27:38.927Z,92.28
2023-03-29T04:30:13.415Z,93.02
2023-03-29T04:33:06.094Z,93.27
2023-03-29T04:35:34.254Z,92.35
2023-03-29T04:38:00.987Z,92.19
2023-03-29T04:40:28.985Z,94.58
2023-03-29T04:43:18.363Z,94.15
2023-03-29T04:45:55.154Z,94.67
2023-03-29T04:48:47.213Z,94.95
2023-03-29T04:51:14.111Z,95.71
2023-03-29T04:53:41.076Z,95.72
2023-03-29T04:56:08.095Z,94.65
2023-03-29T04:59:00.545Z,92.83
2023-03-29T05:01:27.043Z,94.80
2023-03-29T05:03:57.468Z,97.02
2023-03-29T05:06:29.272Z,98.01
2023-03-29T05:08:56.118Z,98.78
2023-03-29T05:11:26.954Z,97.38
2023-03-29T05:13:55.795Z,97.87
2023-03-29T05:16:24.614Z,98.59
2023-03-29T05:18:55.281Z,99.67
2023-03-29T05:21:22.310Z,99.63
2023-03-29T05:23:49.461Z,100.00
2023-03-29T05:26:16.156Z,100.00
2023-03-29T05:28:50.902Z,100.00
2023-03-29T05:31:17.558Z,100.00
2023-03-29T05:33:48.319Z,100.00
2023-03-29T05:36:16.975Z,100.00
2023-03-29T05:38:49.828Z,95.56
2023-03-29T05:41:20.654Z,93.98
2023-03-29T05:43:47.056Z,94.32
2023-03-29T05:46:13.717Z,92.77
2023-03-29T05:48:47.471Z,89.87
2023-03-29T05:51:15.017Z,90.30
2023-03-29T05:53:41.643Z,86.98
2023-03-29T05:56:08.780Z,84.72
2023-03-29T05:58:36.249Z,89.11
2023-03-29T06:01:05.179Z,90.62
2023-03-29T06:03:49.506Z,87.13
2023-03-29T06:06:18.414Z,90.84
2023-03-29T06:08:45.250Z,92.15
2023-03-29T06:11:24.149Z,89.78
2023-03-29T06:14:16.627Z,89.51
2023-03-29T06:16:50.082Z,86.33
2023-03-29T06:19:17.363Z,81.77
2023-03-29T06:21:43.916Z,83.36
2023-03-29T06:24:13.996Z,84.91
2023-03-29T06:26:46.406Z,80.72
2023-03-29T06:29:12.900Z,82.31
2023-03-29T06:31:40.934Z,83.61
2023-03-29T06:34:09.591Z,83.50
2023-03-29T06:36:58.696Z,84.56
2023-03-29T06:39:26.895Z,84.11
2023-03-29T06:42:20.162Z,83.94
2023-03-29T06:45:08.683Z,82.70
2023-03-29T06:47:36.698Z,84.71
2023-03-29T06:50:03.496Z,84.28
2023-03-29T06:52:56.244Z,83.27
2023-03-29T06:55:24.481Z,84.34
2023-03-29T06:57:52.647Z,82.74
2023-03-29T07:00:27.665Z,83.91
2023-03-29T07:03:19.962Z,85.03
2023-03-29T07:05:51.885Z,82.92
2023-03-29T07:08:21.393Z,82.21
2023-03-29T07:10:59.304Z,82.33
2023-03-29T07:13:46.153Z,81.17
2023-03-29T07:16:17.464Z,82.80
2023-03-29T07:18:49.921Z,83.16
2023-03-29T07:21:37.746Z,79.15
2023-03-29T07:24:06.590Z,78.50
2023-03-29T07:26:34.611Z,77.27
2023-03-29T07:29:01.249Z,78.78
2023-03-29T07:31:29.520Z,76.29
2023-03-29T07:34:10.863Z,74.63
2023-03-29T07:36:38.862Z,74.63
2023-03-29T07:39:06.859Z,74.42
2023-03-29T07:41:36.039Z,74.94
2023-03-29T07:44:11.734Z,75.38
2023-03-29T07:46:38.683Z,76.13
2023-03-29T07:49:06.777Z,77.01
2023-03-29T07:51:33.252Z,76.97
2023-03-29T07:54:07.747Z,75.33
2023-03-29T07:56:40.309Z,77.34
2023-03-29T07:59:26.007Z,76.18
2023-03-29T08:02:02.916Z,73.29
2023-03-29T08:04:37.393Z,73.95
2023-03-29T08:07:19.867Z,70.61
2023-03-29T08:10:05.611Z,69.89
2023-03-29T08:12:50.499Z,69.70
2023-03-29T08:15:19.714Z,69.61
2023-03-29T08:17:46.343Z,69.61
2023-03-29T08:20:16.232Z,69.59
2023-03-29T08:22:45.773Z,69.59
2023-03-29T08:25:32.883Z,69.49
2023-03-29T08:27:59.402Z,68.21
2023-03-29T08:30:37.390Z,68.84
2023-03-29T08:33:05.209Z,68.91
2023-03-29T08:35:32.101Z,66.14
2023-03-29T08:38:19.900Z,68.27
2023-03-29T08:40:48.708Z,66.66
2023-03-29T08:43:39.566Z,66.46
2023-03-29T08:46:30.893Z,66.66
2023-03-29T08:49:10.689Z,67.18
2023-03-29T08:51:44.192Z,66.94
2023-03-29T08:54:24.384Z,65.74
2023-03-29T08:57:23.512Z,65.63
2023-03-29T08:59:58.361Z,64.93
2023-03-29T09:02:27.724Z,64.16
2023-03-29T09:05:15.114Z,64.66
2023-03-29T09:07:44.952Z,64.30
2023-03-29T09:10:16.833Z,64.09
2023-03-29T09:13:06.336Z,63.37
2023-03-29T09:16:01.353Z,63.31
2023-03-29T09:18:48.358Z,62.50
2023-03-29T09:21:19.487Z,61.88
2023-03-29T09:23:48.958Z,60.41
2023-03-29T09:27:05.125Z,60.22
2023-03-29T09:29:55.489Z,62.75
2023-03-29T09:32:42.908Z,62.84
2023-03-29T09:35:35.680Z,64.07
2023-03-29T09:38:03.876Z,61.95
2023-03-29T09:40:39.829Z,60.31
2023-03-29T09:43:19.129Z,60.93
2023-03-29T09:45:53.053Z,59.64
2023-03-29T09:48:20.704Z,58.03
2023-03-29T09:50:52.959Z,56.53
2023-03-29T09:53:21.528Z,54.94
2023-03-29T09:56:08.379Z,57.41
2023-03-29T09:58:46.740Z,56.12
2023-03-29T10:01:17.522Z,56.60
2023-03-29T10:03:51.405Z,56.97
2023-03-29T10:06:20.242Z,55.60
2023-03-29T10:08:58.714Z,56.51
2023-03-29T10:11:36.936Z,55.55
2023-03-29T10:14:07.235Z,57.03
2023-03-29T10:16:38.001Z,55.96
2023-03-29T10:19:19.283Z,55.51
2023-03-29T10:21:52.770Z,54.97
2023-03-29T10:24:24.507Z,55.05
2023-03-29T10:26:57.939Z,54.09
2023-03-29T10:29:26.067Z,53.64
2023-03-29T10:31:53.270Z,53.26
2023-03-29T10:34:25.140Z,54.40
2023-03-29T10:36:58.825Z,53.16
2023-03-29T10:39:29.183Z,52.77
2023-03-29T10:41:55.932Z,53.68
2023-03-29T10:44:32.866Z,51.65
2023-03-29T10:47:16.735Z,53.39
2023-03-29T10:49:44.499Z,54.17
2023-03-29T10:52:13.032Z,53.16
2023-03-29T10:54:39.486Z,53.32
2023-03-29T10:57:10.329Z,53.78
2023-03-29T10:59:40.260Z,53.73
2023-03-29T11:02:15.815Z,54.27
2023-03-29T11:04:42.307Z,52.80
2023-03-29T11:07:27.831Z,52.67
2023-03-29T11:10:17.678Z,51.54
2023-03-29T11:12:49.493Z,52.21
2023-03-29T11:15:29.389Z,52.27
2023-03-29T11:17:58.722Z,52.76
2023-03-29T11:20:31.044Z,52.03
2023-03-29T11:22:57.328Z,51.57
2023-03-29T11:25:43.959Z,49.17
2023-03-29T11:28:19.363Z,50.06
2023-03-29T11:30:45.986Z,50.48
2023-03-29T11:33:12.363Z,48.81
2023-03-29T11:35:57.538Z,50.18
2023-03-29T11:38:29.960Z,49.95
2023-03-29T11:41:15.624Z,48.53
2023-03-29T11:43:55.041Z,49.73
2023-03-29T11:46:28.392Z,47.77
2023-03-29T11:49:14.803Z,48.20
2023-03-29T11:51:45.858Z,46.52
2023-03-29T11:54:22.664Z,46.75
2023-03-29T11:56:56.085Z,46.19
2023-03-29T11:59:32.805Z,47.57
2023-03-29T12:02:09.378Z,44.51
2023-03-29T12:04:41.813Z,45.37
2023-03-29T12:07:34.578Z,46.41
2023-03-29T12:10:21.260Z,47.05
2023-03-29T12:13:03.238Z,45.29
2023-03-29T12:15:32.812Z,46.47
2023-03-29T12:18:07.086Z,48.01
2023-03-29T12:20:39.823Z,46.50
2023-03-29T12:23:12.717Z,46.05
2023-03-29T12:25:53.016Z,46.72
2023-03-29T12:28:49.400Z,47.51
2023-03-29T12:31:21.592Z,47.37
2023-03-29T12:33:56.881Z,47.48
2023-03-29T12:36:45.235Z,46.42
2023-03-29T12:39:31.322Z,49.12
2023-03-29T12:42:24.176Z,47.79
2023-03-29T12:45:21.426Z,47.73
2023-03-29T12:47:50.878Z,48.63
2023-03-29T12:50:28.360Z,51.10
2023-03-29T12:53:12.931Z,51.77
2023-03-29T12:55:42.371Z,51.93
2023-03-29T12:58:27.598Z,49.77
2023-03-29T13:01:06.157Z,50.75
2023-03-29T13:03:35.611Z,49.98
2023-03-29T13:06:05.059Z,50.75
2023-03-29T13:08:38.118Z,50.95
2023-03-29T13:11:06.477Z,49.10
2023-03-29T13:13:36.654Z,50.27
2023-03-29T13:16:15.690Z,51.87
2023-03-29T13:19:07.530Z,53.10
2023-03-29T13:21:49.179Z,52.82
2023-03-29T13:24:35.671Z,53.29
2023-03-29T13:27:04.786Z,52.77
2023-03-29T13:29:48.053Z,53.17
2023-03-29T13:32:46.378Z,54.29
2023-03-29T13:35:20.260Z,53.47
2023-03-29T13:38:21.480Z,54.96
2023-03-29T13:40:53.974Z,56.46
2023-03-29T13:43:44.534Z,68.72
2023-03-29T13:46:21.197Z,74.42
2023-03-29T13:48:57.907Z,77.03
2023-03-29T13:51:32.927Z,83.07
2023-03-29T13:54:23.180Z,82.61
2023-03-29T13:57:08.764Z,82.11
2023-03-29T13:59:50.418Z,84.28
2023-03-29T14:02:25.397Z,87.78
2023-03-29T14:04:53.370Z,83.68
2023-03-29T14:07:26.092Z,84.58
2023-03-29T14:09:54.994Z,82.19
2023-03-29T14:12:22.525Z,75.20
2023-03-29T14:14:58.817Z,76.49
2023-03-29T14:17:26.892Z,76.95
2023-03-29T14:19:57.572Z,77.41
2023-03-29T14:22:24.223Z,73.42
2023-03-29T14:24:54.731Z,77.83
2023-03-29T14:27:21.961Z,76.43
2023-03-29T14:29:51.203Z,74.96
2023-03-29T14:32:20.460Z,79.63
2023-03-29T14:34:50.769Z,75.54
2023-03-29T14:37:22.701Z,74.09
2023-03-29T14:39:50.088Z,75.36
2023-03-29T14:42:24.084Z,71.05
2023-03-29T14:44:51.050Z,75.44
2023-03-29T14:47:29.526Z,73.88
2023-03-29T14:50:00.531Z,68.70
2023-03-29T14:52:30.267Z,62.88
2023-03-29T14:55:00.041Z,62.60
2023-03-29T14:57:31.959Z,61.12
2023-03-29T15:00:24.552Z,61.81
2023-03-29T15:02:59.188Z,59.19
2023-03-29T15:05:30.247Z,59.34
2023-03-29T15:07:56.785Z,62.19
2023-03-29T15:10:23.621Z,60.67
2023-03-29T15:12:51.074Z,65.44
2023-03-29T15:15:17.949Z,69.38
2023-03-29T15:17:52.115Z,69.31
2023-03-29T15:20:21.249Z,67.64
2023-03-29T15:22:58.774Z,69.81
2023-03-29T15:25:34.631Z,72.23
2023-03-29T15:28:01.785Z,74.04
2023-03-29T15:30:35.811Z,74.93
2023-03-29T15:33:26.055Z,75.03
2023-03-29T15:35:53.725Z,74.73
2023-03-29T15:38:25.429Z,73.91
2023-03-29T15:41:00.802Z,71.45
2023-03-29T15:43:27.509Z,72.77
2023-03-29T15:45:54.025Z,74.65
2023-03-29T15:48:23.636Z,75.79
2023-03-29T15:50:50.148Z,76.74
2023-03-29T15:53:17.123Z,75.97
2023-03-29T15:56:00.096Z,73.69
2023-03-29T15:58:30.546Z,76.63
2023-03-29T16:01:16.053Z,75.49
2023-03-29T16:03:46.999Z,76.66
2023-03-29T16:06:14.504Z,74.80
2023-03-29T16:08:41.773Z,74.13
2023-03-29T16:11:08.236Z,77.87
2023-03-29T16:13:34.876Z,72.64
2023-03-29T16:16:01.758Z,68.51
2023-03-29T16:18:28.499Z,66.19
2023-03-29T16:20:55.010Z,63.06
2023-03-29T16:23:21.515Z,63.40
2023-03-29T16:25:48.094Z,64.16
2023-03-29T16:28:14.533Z,66.66
2023-03-29T16:30:41.238Z,64.85
2023-03-29T16:33:08.546Z,66.50
2023-03-29T16:35:38.069Z,63.62
2023-03-29T16:38:04.759Z,64.42
2023-03-29T16:40:31.601Z,67.47
2023-03-29T16:42:58.114Z,70.18
2023-03-29T16:45:24.574Z,71.19
2023-03-29T16:47:51.358Z,70.93
2023-03-29T16:50:19.678Z,75.01
2023-03-29T16:52:48.287Z,76.70
2023-03-29T16:55:18.782Z,76.12
2023-03-29T16:57:46.755Z,80.07
2023-03-29T17:00:15.789Z,80.64
2023-03-29T17:02:49.429Z,81.32
2023-03-29T17:05:17.512Z,80.49
2023-03-29T17:07:44.739Z,79.05
2023-03-29T17:10:12.409Z,80.73
2023-03-29T17:12:39.655Z,83.08
2023-03-29T17:15:07.808Z,82.90
2023-03-29T17:17:34.771Z,83.76
2023-03-29T17:20:01.312Z,83.72
2023-03-29T17:22:27.756Z,86.96
2023-03-29T17:24:54.320Z,88.44
2023-03-29T17:27:21.175Z,92.44
2023-03-29T17:29:47.922Z,93.35
2023-03-29T17:32:14.477Z,92.64
2023-03-29T17:34:41.592Z,93.13
2023-03-29T17:37:09.210Z,95.49
2023-03-29T17:39:37.541Z,95.02
2023-03-29T17:42:05.531Z,95.55
2023-03-29T17:44:33.167Z,95.94
2023-03-29T17:47:00.495Z,94.53
2023-03-29T17:49:26.977Z,97.04
2023-03-29T17:51:53.379Z,97.64
2023-03-29T17:54:19.854Z,97.49
2023-03-29T17:56:46.369Z,98.91
2023-03-29T17:59:12.840Z,97.87
2023-03-29T18:01:39.592Z,97.19
2023-03-29T18:04:06.268Z,96.29
2023-03-29T18:06:32.823Z,96.70
2023-03-29T18:09:01.388Z,95.78
2023-03-29T18:11:28.394Z,96.36
2023-03-29T18:13:59.165Z,95.72
2023-03-29T18:16:26.050Z,95.45
2023-03-29T18:18:52.715Z,94.04
2023-03-29T18:21:19.168Z,95.93
2023-03-29T18:23:47.114Z,92.46
2023-03-29T18:26:15.522Z,93.56
2023-03-29T18:28:43.794Z,94.75
2023-03-29T18:31:10.463Z,94.07
2023-03-29T18:33:37.024Z,94.04
2023-03-29T18:36:08.446Z,91.18
2023-03-29T18:38:36.489Z,91.49
2023-03-29T18:41:04.099Z,92.89
2023-03-29T18:43:32.396Z,92.40
2023-03-29T18:45:58.967Z,93.02
2023-03-29T18:48:26.042Z,92.16
2023-03-29T18:50:52.563Z,93.33
2023-03-29T18:53:19.487Z,92.43
2023-03-29T18:55:46.001Z,92.29
2023-03-29T18:58:14.103Z,92.97
2023-03-29T19:00:41.872Z,93.00
2023-03-29T19:03:09.102Z,92.03
2023-03-29T19:05:39.629Z,89.82
2023-03-29T19:08:08.842Z,91.45
2023-03-29T19:10:36.733Z,90.26
2023-03-29T19:13:04.381Z,90.81
2023-03-29T19:15:31.400Z,91.12
2023-03-29T19:17:57.956Z,90.75
2023-03-29T19:20:25.460Z,90.22
2023-03-29T19:22:53.413Z,89.34
2023-03-29T19:25:20.190Z,89.09
2023-03-29T19:27:46.653Z,88.81
2023-03-29T19:30:14.284Z,89.22
2023-03-29T19:32:40.938Z,89.43
2023-03-29T19:35:09.477Z,90.24
2023-03-29T19:37:36.185Z,90.41
2023-03-29T19:40:06.204Z,89.35
2023-03-29T19:42:35.986Z,91.14
2023-03-29T19:45:03.902Z,90.44
2023-03-29T19:47:31.045Z,89.32
2023-03-29T19:49:58.555Z,89.25
2023-03-29T19:52:27.728Z,88.69
2023-03-29T19:54:58.494Z,87.60
2023-03-29T19:57:25.311Z,87.01
2023-03-29T19:59:53.840Z,85.53
2023-03-29T20:02:20.450Z,86.50
2023-03-29T20:04:46.995Z,85.96
2023-03-29T20:07:13.631Z,83.43
2023-03-29T20:09:43.294Z,85.93
2023-03-29T20:12:11.621Z,83.00
2023-03-29T20:14:40.133Z,83.77
2023-03-29T20:17:07.152Z,80.89
2023-03-29T20:19:36.415Z,77.40
2023-03-29T20:22:04.356Z,77.61
2023-03-29T20:24:32.532Z,78.09
2023-03-29T20:26:59.255Z,73.75
2023-03-29T20:29:25.848Z,75.08
2023-03-29T20:31:52.431Z,72.17
2023-03-29T20:34:19.043Z,69.83
2023-03-29T20:36:46.704Z,71.24
2023-03-29T20:39:17.009Z,71.27
2023-03-29T20:41:47.385Z,70.82
2023-03-29T20:44:16.638Z,69.11
2023-03-29T20:46:54.251Z,69.09
2023-03-29T20:49:26.219Z,70.28
2023-03-29T20:51:58.435Z,69.45
2023-03-29T20:54:25.873Z,70.59
2023-03-29T20:56:54.401Z,69.45
2023-03-29T20:59:22.653Z,67.67
2023-03-29T21:01:50.109Z,66.35
2023-03-29T21:04:17.642Z,64.90
2023-03-29T21:06:45.601Z,65.03
2023-03-29T21:09:13.567Z,65.19
2023-03-29T21:11:40.185Z,63.99
2023-03-29T21:14:06.793Z,64.07
2023-03-29T21:16:33.248Z,62.99
2023-03-29T21:18:59.734Z,62.14
2023-03-29T21:21:26.249Z,61.26
2023-03-29T21:23:52.886Z,61.83
2023-03-29T21:26:19.288Z,61.86
2023-03-29T21:28:45.910Z,61.77
2023-03-29T21:31:12.429Z,61.84
2023-03-29T21:33:39.117Z,61.48
2023-03-29T21:36:06.133Z,61.70
2023-03-29T21:38:32.682Z,61.98
2023-03-29T21:41:00.244Z,60.81
2023-03-29T21:43:26.793Z,61.51
2023-03-29T21:45:53.232Z,61.98
2023-03-29T21:48:19.701Z,61.90
2023-03-29T21:50:50.085Z,62.56
2023-03-29T21:53:16.788Z,61.65
2023-03-29T21:55:43.227Z,61.65
2023-03-29T21:58:09.821Z,61.74
2023-03-29T22:00:36.317Z,62.40
2023-03-29T22:03:02.932Z,62.04
2023-03-29T22:05:29.398Z,62.31
2023-03-29T22:07:58.564Z,62.41
2023-03-29T22:10:25.587Z,62.38
2023-03-29T22:12:52.559Z,62.01
2023-03-29T22:15:20.611Z,62.74
2023-03-29T22:17:48.043Z,62.73
2023-03-29T22:20:14.835Z,62.50
2023-03-29T22:22:46.803Z,62.66
2023-03-29T22:25:13.414Z,62.78
2023-03-29T22:27:39.920Z,62.98
2023-03-29T22:30:07.060Z,63.61
2023-03-29T22:32:34.666Z,63.19
2023-03-29T22:35:01.164Z,63.32
2023-03-29T22:37:27.819Z,63.11
2023-03-29T22:39:54.273Z,62.73
2023-03-29T22:42:20.992Z,62.52
2023-03-29T22:44:47.484Z,61.52
2023-03-29T22:47:14.292Z,62.04
2023-03-29T22:49:41.288Z,61.37
2023-03-29T22:52:07.965Z,60.83
2023-03-29T22:54:34.407Z,60.56
2023-03-29T22:57:00.863Z,59.31
2023-03-29T22:59:27.456Z,60.55
2023-03-29T23:01:54.066Z,59.34
2023-03-29T23:04:20.653Z,60.32
2023-03-29T23:06:47.091Z,60.30
2023-03-29T23:09:15.848Z,59.91
2023-03-29T23:11:42.876Z,60.35
2023-03-29T23:14:09.539Z,60.24
2023-03-29T23:16:36.919Z,60.66
2023-03-29T23:19:03.461Z,60.87
2023-03-29T23:21:29.993Z,60.74
2023-03-29T23:23:56.464Z,61.15
2023-03-29T23:26:23.111Z,60.66
2023-03-29T23:28:51.473Z,60.88
2023-03-29T23:31:18.436Z,60.79
2023-03-29T23:33:45.476Z,63.48
2023-03-29T23:36:14.922Z,63.49
2023-03-29T23:38:43.672Z,64.13
2023-03-29T23:41:12.565Z,64.65
2023-03-29T23:43:41.718Z,64.33
2023-03-29T23:46:10.782Z,64.19
2023-03-29T23:48:38.496Z,64.12
2023-03-29T23:51:07.740Z,63.62
2023-03-29T23:53:34.208Z,64.37
2023-03-29T23:56:03.312Z,65.30
2023-03-29T23:58:35.945Z,66.40
